Time;durP1;ratioP1;P1;durP2;ratioP2;P2;SDS_P1;SDS_P2;PMS_P1;PMS_P2;Temp;Humidity;BMP_temperature;BMP_pressure;BME280_temperature;BME280_humidity;BME280_pressure;Samples;Min_cycle;Max_cycle;Signal;HPM_P1;HPM_P2
2024/04/25 00:00:14;;;;;;;6.30;1.70;;;;;;;;;;5348728;26;20008;-52
2024/04/25 00:02:39;;;;;;;6.40;1.75;;;;;;;;;;5340473;26;19997;-55
2024/04/25 00:05:04;;;;;;;5.28;1.70;;;;;;;;;;5349742;26;19997;-52
2024/04/25 00:07:30;;;;;;;5.47;1.70;;;;;;;;;;5319645;26;19997;-55
2024/04/25 00:09:55;;;;;;;6.70;1.65;;;;;;;;;;5334717;26;19994;-56
2024/04/25 00:12:20;;;;;;;6.88;1.92;;;;;;;;;;5345872;26;19993;-54
2024/04/25 00:14:46;;;;;;;4.47;1.75;;;;;;;;;;5350128;26;20068;-54
2024/04/25 00:17:11;;;;;;;5.72;1.98;;;;;;;;;;5330773;26;20005;-56
2024/04/25 00:19:36;;;;;;;7.05;1.95;;;;;;;;;;5315390;26;20005;-55
2024/04/25 00:22:02;;;;;;;6.22;1.60;;;;;;;;;;5315642;27;20073;-56
2024/04/25 00:24:28;;;;;;;8.45;1.63;;;;;;;;;;5316565;26;20021;-53
2024/04/25 00:26:53;;;;;;;8.60;1.67;;;;;;;;;;5319645;26;20014;-56
2024/04/25 00:29:19;;;;;;;6.15;1.55;;;;;;;;;;5315359;27;19994;-56
2024/04/25 00:31:44;;;;;;;7.53;1.95;;;;;;;;;;5331632;26;20004;-56
2024/04/25 00:34:09;;;;;;;6.18;1.90;;;;;;;;;;5349838;26;19989;-56
2024/04/25 00:36:34;;;;;;;8.20;1.98;;;;;;;;;;5346112;26;20527;-53
2024/04/25 00:39:02;;;;;;;7.95;2.17;;;;;;;;;;5349706;26;20016;-55
2024/04/25 00:41:28;;;;;;;6.22;1.80;;;;;;;;;;5339847;26;20049;-54
2024/04/25 00:43:53;;;;;;;6.78;1.80;;;;;;;;;;5315122;27;20009;-52
2024/04/25 00:46:18;;;;;;;8.40;2.25;;;;;;;;;;5292514;26;20071;-56
2024/04/25 00:48:44;;;;;;;6.38;1.80;;;;;;;;;;5318994;26;19992;-56
2024/04/25 00:51:10;;;;;;;9.23;2.25;;;;;;;;;;5340182;26;20086;-55
2024/04/25 00:53:35;;;;;;;8.95;1.90;;;;;;;;;;5315172;27;20013;-56
2024/04/25 00:56:02;;;;;;;6.90;2.10;;;;;;;;;;5315236;26;19998;-56
2024/04/25 00:58:30;;;;;;;9.43;2.17;;;;;;;;;;5312826;27;20418;-56
2024/04/25 01:00:56;;;;;;;5.05;1.85;;;;;;;;;;5319891;26;20015;-54
2024/04/25 01:03:21;;;;;;;6.53;2.00;;;;;;;;;;5349564;26;20083;-56
2024/04/25 01:05:47;;;;;;;8.70;2.20;;;;;;;;;;5348308;26;20004;-52
2024/04/25 01:08:12;;;;;;;8.52;2.10;;;;;;;;;;5349066;26;19997;-55
2024/04/25 01:10:38;;;;;;;6.80;2.00;;;;;;;;;;5347464;26;19996;-55
2024/04/25 01:13:03;;;;;;;7.18;1.88;;;;;;;;;;5314783;27;19997;-56
2024/04/25 01:15:28;;;;;;;8.45;2.30;;;;;;;;;;5319477;26;20301;-54
2024/04/25 01:17:53;;;;;;;9.15;2.17;;;;;;;;;;5326109;26;19998;-56
2024/04/25 01:20:19;;;;;;;6.45;2.30;;;;;;;;;;5315322;26;20009;-55
2024/04/25 01:22:45;;;;;;;6.75;2.20;;;;;;;;;;5344996;26;20299;-54
2024/04/25 01:25:11;;;;;;;6.88;2.20;;;;;;;;;;5349024;26;20008;-52
2024/04/25 01:27:37;;;;;;;7.97;2.63;;;;;;;;;;5317941;26;20016;-53
2024/04/25 01:30:02;;;;;;;8.55;2.30;;;;;;;;;;5347811;26;20008;-54
2024/04/25 01:32:28;;;;;;;5.07;2.10;;;;;;;;;;5314492;27;20005;-53
2024/04/25 01:34:54;;;;;;;9.48;2.22;;;;;;;;;;5315346;26;20013;-55
2024/04/25 01:37:19;;;;;;;8.73;2.65;;;;;;;;;;5314743;26;19993;-55
2024/04/25 01:39:44;;;;;;;5.35;2.30;;;;;;;;;;5314719;26;20347;-53
2024/04/25 01:42:10;;;;;;;6.50;2.60;;;;;;;;;;5343935;26;20005;-56
2024/04/25 01:44:35;;;;;;;6.32;2.22;;;;;;;;;;5348447;26;20017;-55
2024/04/25 01:47:00;;;;;;;8.27;2.13;;;;;;;;;;5318121;26;20027;-55
2024/04/25 01:49:25;;;;;;;5.47;2.22;;;;;;;;;;5318327;26;20290;-54
2024/04/25 01:51:51;;;;;;;8.00;2.63;;;;;;;;;;5344921;26;20055;-53
2024/04/25 01:54:16;;;;;;;7.93;2.40;;;;;;;;;;5348771;26;20063;-54
2024/04/25 01:56:41;;;;;;;7.40;2.65;;;;;;;;;;5348589;26;20125;-57
2024/04/25 01:59:06;;;;;;;8.65;2.80;;;;;;;;;;5345169;26;20082;-53
2024/04/25 02:01:31;;;;;;;7.00;2.72;;;;;;;;;;5340177;26;19997;-54
2024/04/25 02:03:57;;;;;;;9.38;2.90;;;;;;;;;;5347475;26;20369;-55
2024/04/25 02:06:22;;;;;;;9.20;3.00;;;;;;;;;;5333891;26;20028;-55
2024/04/25 02:08:47;;;;;;;10.02;3.80;;;;;;;;;;5346879;26;20001;-52
2024/04/25 02:11:12;;;;;;;10.05;3.72;;;;;;;;;;5348418;26;20007;-54
2024/04/25 02:13:38;;;;;;;10.35;4.00;;;;;;;;;;5348908;26;19997;-53
2024/04/25 02:16:03;;;;;;;13.10;4.15;;;;;;;;;;5350563;26;19992;-56
2024/04/25 02:18:28;;;;;;;8.38;3.70;;;;;;;;;;5344522;26;20009;-55
2024/04/25 02:26:21;;;;;;;10.00;3.55;;;;;;;;;;5322253;26;20109;-54
2024/04/25 02:28:46;;;;;;;9.93;3.80;;;;;;;;;;5349881;26;20405;-55
2024/04/25 02:31:13;;;;;;;13.10;3.70;;;;;;;;;;5333630;26;19997;-55
2024/04/25 02:33:39;;;;;;;9.10;3.67;;;;;;;;;;5317963;26;20025;-55
2024/04/25 02:36:04;;;;;;;13.27;3.80;;;;;;;;;;5318525;26;20001;-53
2024/04/25 02:38:30;;;;;;;9.13;4.03;;;;;;;;;;5316895;27;19997;-55
2024/04/25 02:40:55;;;;;;;13.45;4.50;;;;;;;;;;5317008;27;20010;-55
2024/04/25 02:43:20;;;;;;;9.80;3.97;;;;;;;;;;5317897;26;20073;-56
2024/04/25 02:45:45;;;;;;;13.90;3.90;;;;;;;;;;5331532;26;20004;-52
2024/04/25 02:48:10;;;;;;;9.07;3.50;;;;;;;;;;5340323;26;20017;-57
2024/04/25 02:50:36;;;;;;;14.00;4.10;;;;;;;;;;5319373;26;20044;-54
2024/04/25 02:53:01;;;;;;;11.98;4.18;;;;;;;;;;5351087;26;19997;-56
2024/04/25 02:55:26;;;;;;;13.32;3.85;;;;;;;;;;5325051;26;19993;-52
2024/04/25 02:57:51;;;;;;;15.43;3.88;;;;;;;;;;5337576;26;20012;-53
2024/04/25 03:00:17;;;;;;;14.13;3.88;;;;;;;;;;5350435;26;19992;-53
2024/04/25 03:02:42;;;;;;;10.60;3.83;;;;;;;;;;5418323;21;20003;-88
2024/04/25 03:05:07;;;;;;;12.48;3.88;;;;;;;;;;5420175;26;19992;-88
2024/04/25 03:07:36;;;;;;;14.63;3.67;;;;;;;;;;5402783;26;20003;-89
2024/04/25 03:10:01;;;;;;;17.35;4.13;;;;;;;;;;5384821;26;20000;-88
2024/04/25 03:12:27;;;;;;;14.48;3.53;;;;;;;;;;5397193;26;20003;-89
2024/04/25 03:14:52;;;;;;;13.77;3.65;;;;;;;;;;5422177;26;20304;-89
2024/04/25 03:17:17;;;;;;;13.20;3.60;;;;;;;;;;5419385;26;19992;-88
2024/04/25 03:19:43;;;;;;;13.40;3.85;;;;;;;;;;5421681;26;20082;-88
2024/04/25 03:22:09;;;;;;;15.63;3.85;;;;;;;;;;5385853;26;20006;-88
2024/04/25 03:24:34;;;;;;;19.52;4.45;;;;;;;;;;5384451;26;19996;-89
2024/04/25 03:26:59;;;;;;;12.82;3.40;;;;;;;;;;5386973;26;19999;-88
2024/04/25 03:29:24;;;;;;;13.48;3.72;;;;;;;;;;5386593;26;20433;-88
2024/04/25 03:31:50;;;;;;;14.20;3.38;;;;;;;;;;5399878;26;20004;-88
2024/04/25 03:34:15;;;;;;;13.20;3.33;;;;;;;;;;5385438;26;20410;-88
2024/04/25 03:36:41;;;;;;;16.80;3.95;;;;;;;;;;5385241;26;20000;-88
2024/04/25 03:39:06;;;;;;;12.15;3.65;;;;;;;;;;5386939;26;20008;-88
2024/04/25 03:41:32;;;;;;;12.80;3.70;;;;;;;;;;5385060;26;19996;-88
2024/04/25 03:43:58;;;;;;;15.85;4.10;;;;;;;;;;5389970;26;20000;-88
2024/04/25 03:46:23;;;;;;;17.92;4.55;;;;;;;;;;5412056;26;20042;-88
2024/04/25 03:48:48;;;;;;;16.35;4.28;;;;;;;;;;5450155;26;19996;-88
2024/04/25 03:51:13;;;;;;;18.90;3.25;;;;;;;;;;5422287;26;19987;-88
2024/04/25 03:53:39;;;;;;;12.98;4.22;;;;;;;;;;5426043;26;20053;-88
2024/04/25 03:56:04;;;;;;;16.58;4.10;;;;;;;;;;5420217;26;20000;-88
2024/04/25 03:58:30;;;;;;;17.25;3.95;;;;;;;;;;5422593;26;20009;-88
2024/04/25 04:00:56;;;;;;;18.45;4.65;;;;;;;;;;5435397;21;20065;-53
2024/04/25 04:03:22;;;;;;;17.13;4.85;;;;;;;;;;5420862;26;20304;-55
2024/04/25 04:05:48;;;;;;;16.25;4.00;;;;;;;;;;5421410;26;19996;-52
2024/04/25 04:08:14;;;;;;;12.70;3.78;;;;;;;;;;5421542;26;19995;-56
2024/04/25 04:10:43;;;;;;;15.65;3.92;;;;;;;;;;5421732;26;20062;-53
2024/04/25 04:13:10;;;;;;;18.33;4.50;;;;;;;;;;5422009;26;20065;-55
2024/04/25 04:15:37;;;;;;;18.48;4.75;;;;;;;;;;5419555;26;19992;-55
2024/04/25 04:18:03;;;;;;;13.43;3.83;;;;;;;;;;5421515;26;20296;-56
2024/04/25 04:20:30;;;;;;;14.35;4.25;;;;;;;;;;5421412;26;20011;-56
2024/04/25 04:22:57;;;;;;;14.63;4.38;;;;;;;;;;5421528;26;20090;-55
2024/04/25 04:25:23;;;;;;;17.05;4.28;;;;;;;;;;5427841;26;19999;-56
2024/04/25 04:27:49;;;;;;;13.52;3.90;;;;;;;;;;5457085;26;20009;-56
2024/04/25 04:30:16;;;;;;;15.13;4.15;;;;;;;;;;5457621;26;20064;-54
2024/04/25 04:32:42;;;;;;;13.25;4.00;;;;;;;;;;5454024;26;20284;-52
2024/04/25 04:35:09;;;;;;;12.88;3.30;;;;;;;;;;5435418;26;20277;-52
2024/04/25 04:37:35;;;;;;;14.50;3.92;;;;;;;;;;5420606;26;19996;-55
2024/04/25 04:40:02;;;;;;;15.02;3.65;;;;;;;;;;5421723;26;20000;-53
2024/04/25 04:42:28;;;;;;;12.70;4.13;;;;;;;;;;5421646;26;20417;-53
2024/04/25 04:44:55;;;;;;;15.48;3.80;;;;;;;;;;5421881;26;20019;-53
2024/04/25 04:47:21;;;;;;;14.77;4.03;;;;;;;;;;5421324;26;19996;-53
2024/04/25 04:49:48;;;;;;;13.50;4.22;;;;;;;;;;5420920;26;19995;-53
2024/04/25 04:52:14;;;;;;;13.85;4.38;;;;;;;;;;5421070;26;20007;-54
2024/04/25 04:54:41;;;;;;;15.25;5.03;;;;;;;;;;5420811;26;20003;-55
2024/04/25 04:57:08;;;;;;;12.27;4.65;;;;;;;;;;5420754;26;20011;-52
2024/04/25 04:59:34;;;;;;;16.13;4.70;;;;;;;;;;5420733;26;20004;-51
2024/04/25 05:02:01;;;;;;;12.45;4.07;;;;;;;;;;5418584;26;20007;-56
2024/04/25 05:04:26;;;;;;;13.77;4.25;;;;;;;;;;5389484;26;20363;-53
2024/04/25 05:06:52;;;;;;;13.05;3.40;;;;;;;;;;5420887;26;20007;-53
2024/04/25 05:09:17;;;;;;;10.80;3.50;;;;;;;;;;5419239;26;20049;-52
2024/04/25 05:11:42;;;;;;;13.52;3.88;;;;;;;;;;5420420;26;20014;-52
2024/04/25 05:14:10;;;;;;;12.52;3.40;;;;;;;;;;5420956;26;20281;-52
2024/04/25 05:16:36;;;;;;;10.73;2.97;;;;;;;;;;5420809;26;20407;-53
2024/04/25 05:19:01;;;;;;;14.10;3.42;;;;;;;;;;5420619;26;20004;-53
2024/04/25 05:21:30;;;;;;;13.77;3.78;;;;;;;;;;5419849;26;19987;-52
2024/04/25 05:23:55;;;;;;;14.93;3.83;;;;;;;;;;5420071;26;20007;-52
2024/04/25 05:26:21;;;;;;;13.38;4.03;;;;;;;;;;5420577;26;20392;-54
2024/04/25 05:28:46;;;;;;;11.55;3.92;;;;;;;;;;5420753;26;20022;-52
2024/04/25 05:31:11;;;;;;;13.57;4.18;;;;;;;;;;5420016;26;20311;-53
2024/04/25 05:33:36;;;;;;;14.18;3.90;;;;;;;;;;5419435;26;20013;-53
2024/04/25 05:36:03;;;;;;;13.15;3.90;;;;;;;;;;5419792;26;20014;-54
2024/04/25 05:38:28;;;;;;;14.95;4.20;;;;;;;;;;5419717;26;20013;-53
2024/04/25 05:40:53;;;;;;;12.93;4.60;;;;;;;;;;5420159;26;19995;-53
2024/04/25 05:43:18;;;;;;;13.27;4.43;;;;;;;;;;5419761;26;20010;-53
2024/04/25 05:45:44;;;;;;;12.77;4.05;;;;;;;;;;5420274;26;20003;-52
2024/04/25 05:48:09;;;;;;;10.55;3.80;;;;;;;;;;5418746;26;20068;-54
2024/04/25 05:50:35;;;;;;;15.00;4.80;;;;;;;;;;5419717;26;20435;-52
2024/04/25 05:53:02;;;;;;;12.25;4.68;;;;;;;;;;5419625;26;20328;-53
2024/04/25 05:55:27;;;;;;;14.45;4.45;;;;;;;;;;5419441;26;20014;-55
2024/04/25 05:57:52;;;;;;;13.98;4.63;;;;;;;;;;5419357;26;20277;-52
2024/04/25 06:00:18;;;;;;;16.58;4.18;;;;;;;;;;5446123;26;19995;-54
2024/04/25 06:02:43;;;;;;;13.75;4.18;;;;;;;;;;5424147;26;20010;-53
2024/04/25 06:05:11;;;;;;;13.55;4.53;;;;;;;;;;5418571;26;19992;-54
2024/04/25 06:07:36;;;;;;;13.32;5.03;;;;;;;;;;5419491;26;20000;-53
2024/04/25 06:10:01;;;;;;;14.48;4.70;;;;;;;;;;5419645;26;20426;-53
2024/04/25 06:12:27;;;;;;;15.98;4.88;;;;;;;;;;5418973;26;20042;-56
2024/04/25 06:14:52;;;;;;;14.05;4.82;;;;;;;;;;5419283;26;20341;-53
2024/04/25 06:17:18;;;;;;;13.75;4.32;;;;;;;;;;5418521;26;19995;-57
2024/04/25 06:19:46;;;;;;;13.35;4.25;;;;;;;;;;5419287;26;20000;-57
2024/04/25 06:22:12;;;;;;;15.55;4.70;;;;;;;;;;5419735;26;19999;-54
2024/04/25 06:24:37;;;;;;;19.50;8.98;;;;;;;;;;5419522;26;20002;-56
2024/04/25 06:27:02;;;;;;;16.15;4.20;;;;;;;;;;5419117;26;19991;-55
2024/04/25 06:29:27;;;;;;;14.25;4.68;;;;;;;;;;5419296;26;19987;-52
2024/04/25 06:31:53;;;;;;;13.65;4.32;;;;;;;;;;5419483;26;20008;-55
2024/04/25 06:34:18;;;;;;;18.33;5.57;;;;;;;;;;5419576;26;20010;-52
2024/04/25 06:36:45;;;;;;;12.55;4.53;;;;;;;;;;5417649;26;20285;-53
2024/04/25 06:39:10;;;;;;;14.32;4.38;;;;;;;;;;5419002;26;19996;-53
2024/04/25 06:41:36;;;;;;;10.75;4.20;;;;;;;;;;5419431;26;19996;-53
2024/04/25 06:44:01;;;;;;;8.30;3.83;;;;;;;;;;5419150;26;19995;-52
2024/04/25 06:46:26;;;;;;;10.55;4.00;;;;;;;;;;5418488;26;19991;-52
2024/04/25 06:48:52;;;;;;;9.93;4.15;;;;;;;;;;5417695;26;20017;-56
2024/04/25 06:51:18;;;;;;;11.50;4.40;;;;;;;;;;5419271;26;20276;-55
2024/04/25 06:53:44;;;;;;;13.65;4.75;;;;;;;;;;5452350;26;20003;-55
2024/04/25 06:56:09;;;;;;;12.13;4.03;;;;;;;;;;5443475;26;20010;-52
2024/04/25 06:58:35;;;;;;;15.35;4.72;;;;;;;;;;5418353;26;20007;-55
2024/04/25 07:01:00;;;;;;;14.27;5.65;;;;;;;;;;5421744;26;20002;-53
2024/04/25 07:03:25;;;;;;;15.60;5.20;;;;;;;;;;5419951;26;20000;-54
2024/04/25 07:05:50;;;;;;;13.18;5.25;;;;;;;;;;5421583;26;19996;-56
2024/04/25 07:08:16;;;;;;;14.85;5.72;;;;;;;;;;5421827;26;20388;-54
2024/04/25 07:10:41;;;;;;;13.40;6.57;;;;;;;;;;5422444;26;20000;-51
2024/04/25 07:13:06;;;;;;;16.55;7.05;;;;;;;;;;5422470;26;19992;-56
2024/04/25 07:15:31;;;;;;;16.02;6.75;;;;;;;;;;5422040;26;20331;-54
2024/04/25 07:17:59;;;;;;;18.80;7.55;;;;;;;;;;5421992;26;20003;-52
2024/04/25 07:20:24;;;;;;;16.38;6.70;;;;;;;;;;5422219;26;20007;-56
2024/04/25 07:22:50;;;;;;;18.38;7.40;;;;;;;;;;5421596;26;20023;-52
2024/04/25 07:25:17;;;;;;;23.17;7.43;;;;;;;;;;5422179;26;19992;-56
2024/04/25 07:27:42;;;;;;;17.67;8.20;;;;;;;;;;5421304;26;19996;-54
2024/04/25 07:30:09;;;;;;;17.80;7.43;;;;;;;;;;5421482;26;20422;-56
2024/04/25 07:32:34;;;;;;;17.17;7.50;;;;;;;;;;5421414;26;20000;-54
2024/04/25 07:35:00;;;;;;;18.38;7.88;;;;;;;;;;5422209;26;19996;-54
2024/04/25 07:37:26;;;;;;;18.33;7.75;;;;;;;;;;5422582;26;20458;-55
2024/04/25 07:39:51;;;;;;;15.00;7.18;;;;;;;;;;5421414;26;20003;-53
2024/04/25 07:42:16;;;;;;;14.98;7.30;;;;;;;;;;5422107;26;20316;-56
2024/04/25 07:44:41;;;;;;;18.52;7.30;;;;;;;;;;5421880;26;20004;-56
2024/04/25 07:47:08;;;;;;;13.77;6.80;;;;;;;;;;5421556;26;20089;-54
2024/04/25 07:49:33;;;;;;;20.20;7.90;;;;;;;;;;5421698;26;20007;-54
2024/04/25 07:51:58;;;;;;;20.27;7.15;;;;;;;;;;5419861;26;20006;-53
2024/04/25 07:54:24;;;;;;;17.75;7.32;;;;;;;;;;5422539;26;19999;-52
2024/04/25 07:56:49;;;;;;;15.88;7.25;;;;;;;;;;5422304;26;20007;-53
2024/04/25 07:59:14;;;;;;;16.92;7.18;;;;;;;;;;5421552;26;20305;-56
2024/04/25 08:01:40;;;;;;;17.08;8.00;;;;;;;;;;5419788;26;20003;-53
2024/04/25 08:04:05;;;;;;;14.02;6.95;;;;;;;;;;5418349;26;19999;-53
2024/04/25 08:06:34;;;;;;;14.25;7.35;;;;;;;;;;5420803;26;20007;-53
2024/04/25 08:08:59;;;;;;;13.93;6.97;;;;;;;;;;5421387;26;20007;-55
2024/04/25 08:11:24;;;;;;;17.50;7.68;;;;;;;;;;5418761;26;20042;-53
2024/04/25 08:13:49;;;;;;;14.95;6.10;;;;;;;;;;5422158;26;19996;-53
2024/04/25 08:16:15;;;;;;;19.73;6.32;;;;;;;;;;5384070;26;20027;-53
2024/04/25 08:18:41;;;;;;;15.48;5.90;;;;;;;;;;5416587;26;20002;-56
2024/04/25 08:21:06;;;;;;;15.65;5.50;;;;;;;;;;5419557;26;20397;-56
2024/04/25 08:23:31;;;;;;;12.90;4.95;;;;;;;;;;5419707;26;20373;-56
2024/04/25 08:25:56;;;;;;;13.18;5.57;;;;;;;;;;5420010;26;20058;-55
2024/04/25 08:28:22;;;;;;;13.18;5.15;;;;;;;;;;5420843;26;20401;-53
2024/04/25 08:30:47;;;;;;;13.63;4.25;;;;;;;;;;5420974;26;20020;-54
2024/04/25 08:33:12;;;;;;;12.57;4.50;;;;;;;;;;5421038;26;20003;-55
2024/04/25 08:35:38;;;;;;;11.48;3.90;;;;;;;;;;5420596;26;20007;-51
2024/04/25 08:38:03;;;;;;;12.45;3.65;;;;;;;;;;5420636;26;20011;-52
2024/04/25 08:40:29;;;;;;;11.93;3.53;;;;;;;;;;5421045;26;20283;-54
2024/04/25 08:42:54;;;;;;;13.40;3.88;;;;;;;;;;5420741;26;20311;-53
2024/04/25 08:45:23;;;;;;;18.45;4.40;;;;;;;;;;5419342;26;20006;-52
2024/04/25 08:47:49;;;;;;;14.60;4.05;;;;;;;;;;5421183;26;20027;-57
2024/04/25 08:50:16;;;;;;;15.15;4.20;;;;;;;;;;5421939;26;20000;-54
2024/04/25 08:52:41;;;;;;;11.70;3.53;;;;;;;;;;5421125;26;20339;-54
2024/04/25 08:55:08;;;;;;;12.25;3.75;;;;;;;;;;5420875;26;20011;-54
2024/04/25 08:57:33;;;;;;;14.98;4.03;;;;;;;;;;5420857;26;20073;-57
2024/04/25 08:59:59;;;;;;;12.48;3.67;;;;;;;;;;5420341;26;20007;-51
2024/04/25 09:02:25;;;;;;;17.65;4.10;;;;;;;;;;5419385;26;20007;-51
2024/04/25 09:04:54;;;;;;;13.75;4.38;;;;;;;;;;5420256;26;20011;-51
2024/04/25 09:07:19;;;;;;;15.32;4.53;;;;;;;;;;5420702;26;20081;-51
2024/04/25 09:09:44;;;;;;;11.02;4.03;;;;;;;;;;5419290;26;19987;-50
2024/04/25 09:12:09;;;;;;;13.70;4.50;;;;;;;;;;5420818;26;19987;-52
2024/04/25 09:14:35;;;;;;;14.80;4.40;;;;;;;;;;5420273;26;20007;-52
2024/04/25 09:17:00;;;;;;;14.50;4.50;;;;;;;;;;5420263;26;19995;-53
2024/04/25 09:19:25;;;;;;;12.65;4.47;;;;;;;;;;5385058;26;19996;-56
2024/04/25 09:21:51;;;;;;;14.95;4.30;;;;;;;;;;5385073;26;20058;-52
2024/04/25 09:24:19;;;;;;;14.38;4.05;;;;;;;;;;5388567;26;20059;-51
2024/04/25 09:26:46;;;;;;;14.45;4.47;;;;;;;;;;5385466;26;20007;-54
2024/04/25 09:29:11;;;;;;;14.13;4.30;;;;;;;;;;5416237;26;20014;-51
2024/04/25 09:31:37;;;;;;;15.10;4.53;;;;;;;;;;5420403;26;19991;-53
2024/04/25 09:34:02;;;;;;;13.25;4.10;;;;;;;;;;5419623;26;19999;-54
2024/04/25 09:36:28;;;;;;;12.90;3.47;;;;;;;;;;5420426;26;19995;-53
2024/04/25 09:38:53;;;;;;;16.85;4.10;;;;;;;;;;5420325;26;19995;-53
2024/04/25 09:41:19;;;;;;;13.32;3.65;;;;;;;;;;5420327;26;20403;-56
2024/04/25 09:43:45;;;;;;;18.80;4.00;;;;;;;;;;5419565;26;20042;-53
2024/04/25 09:46:14;;;;;;;11.38;3.03;;;;;;;;;;5420281;26;20015;-52
2024/04/25 09:48:42;;;;;;;11.85;3.80;;;;;;;;;;5420593;26;20013;-55
2024/04/25 09:51:15;;;;;;;13.02;3.65;;;;;;;;;;5419289;26;20064;-55
2024/04/25 09:53:55;;;;;;;15.70;3.53;;;;;;;;;;5419864;26;20074;-55
2024/04/25 09:56:24;;;;;;;10.13;3.42;;;;;;;;;;5419479;26;20346;-56
2024/04/25 09:58:50;;;;;;;14.52;3.50;;;;;;;;;;5420085;26;20014;-53
2024/04/25 10:01:16;;;;;;;14.02;3.35;;;;;;;;;;5418809;26;20409;-55
2024/04/25 10:03:42;;;;;;;14.90;4.00;;;;;;;;;;5418962;26;20082;-55
2024/04/25 10:06:07;;;;;;;11.15;3.13;;;;;;;;;;5417335;26;20065;-51
2024/04/25 10:08:33;;;;;;;15.75;5.68;;;;;;;;;;5419274;26;20031;-52
2024/04/25 10:10:58;;;;;;;12.60;4.50;;;;;;;;;;5417946;26;20007;-55
2024/04/25 10:13:24;;;;;;;13.45;3.80;;;;;;;;;;5419557;26;20014;-52
2024/04/25 10:15:52;;;;;;;12.80;3.85;;;;;;;;;;5419319;26;20003;-53
2024/04/25 10:18:18;;;;;;;9.68;3.17;;;;;;;;;;5418973;26;20003;-54
2024/04/25 10:20:43;;;;;;;8.65;3.38;;;;;;;;;;5417108;26;20065;-55
2024/04/25 10:23:11;;;;;;;9.45;2.55;;;;;;;;;;5419204;26;19988;-58
2024/04/25 10:25:36;;;;;;;11.13;3.17;;;;;;;;;;5417843;26;20392;-58
2024/04/25 10:28:03;;;;;;;11.40;3.00;;;;;;;;;;5418255;26;20050;-58
2024/04/25 10:30:28;;;;;;;11.57;2.88;;;;;;;;;;5419595;26;19996;-55
2024/04/25 10:32:53;;;;;;;11.27;4.20;;;;;;;;;;5419262;26;19992;-57
2024/04/25 10:35:19;;;;;;;11.93;4.13;;;;;;;;;;5447729;26;19999;-54
2024/04/25 10:37:44;;;;;;;8.68;2.97;;;;;;;;;;5422154;26;20006;-53
2024/04/25 10:40:13;;;;;;;8.10;2.20;;;;;;;;;;5422820;26;20018;-55
2024/04/25 10:42:39;;;;;;;12.07;2.63;;;;;;;;;;5439977;26;20439;-55
2024/04/25 10:45:04;;;;;;;8.48;2.40;;;;;;;;;;5459205;26;20056;-56
2024/04/25 10:47:29;;;;;;;13.57;2.72;;;;;;;;;;5447683;26;20307;-54
2024/04/25 10:49:55;;;;;;;8.57;2.30;;;;;;;;;;5422591;26;19999;-55
2024/04/25 10:52:20;;;;;;;6.78;2.20;;;;;;;;;;5422203;26;20416;-54
2024/04/25 10:54:46;;;;;;;7.63;2.20;;;;;;;;;;5423276;26;20401;-57
2024/04/25 10:57:14;;;;;;;9.48;2.45;;;;;;;;;;5422264;26;20281;-55
2024/04/25 10:59:39;;;;;;;10.50;2.60;;;;;;;;;;5420804;26;20061;-54
2024/04/25 11:02:05;;;;;;;11.30;3.05;;;;;;;;;;5420097;26;20003;-52
2024/04/25 11:04:34;;;;;;;10.23;2.60;;;;;;;;;;5420156;26;20000;-53
2024/04/25 11:07:00;;;;;;;8.50;2.45;;;;;;;;;;5422766;26;20006;-52
2024/04/25 11:09:25;;;;;;;9.60;2.30;;;;;;;;;;5422552;26;19999;-52
2024/04/25 11:11:51;;;;;;;8.25;2.20;;;;;;;;;;5422137;26;20076;-53
2024/04/25 11:14:16;;;;;;;6.80;2.03;;;;;;;;;;5422290;26;19995;-56
2024/04/25 11:16:42;;;;;;;7.20;2.33;;;;;;;;;;5422351;26;19991;-52
2024/04/25 11:19:08;;;;;;;8.35;2.78;;;;;;;;;;5422118;26;19999;-51
2024/04/25 11:21:33;;;;;;;9.30;2.40;;;;;;;;;;5422763;26;20069;-56
2024/04/25 11:23:59;;;;;;;8.82;2.30;;;;;;;;;;5422376;26;20396;-54
2024/04/25 11:26:25;;;;;;;7.28;2.00;;;;;;;;;;5422125;26;20070;-54
2024/04/25 11:28:50;;;;;;;8.85;2.25;;;;;;;;;;5422047;26;20003;-53
2024/04/25 11:31:15;;;;;;;9.52;2.13;;;;;;;;;;5421916;26;20035;-54
2024/04/25 11:33:42;;;;;;;10.35;2.50;;;;;;;;;;5422194;26;20003;-53
2024/04/25 11:36:07;;;;;;;8.30;2.22;;;;;;;;;;5413913;26;20070;-54
2024/04/25 11:38:32;;;;;;;8.77;2.20;;;;;;;;;;5408768;26;20011;-57
2024/04/25 11:40:58;;;;;;;8.90;2.30;;;;;;;;;;5421569;26;20393;-56
2024/04/25 11:43:25;;;;;;;7.10;2.20;;;;;;;;;;5421780;26;20054;-53
2024/04/25 11:45:50;;;;;;;6.10;2.20;;;;;;;;;;5420346;26;20007;-56
2024/04/25 11:48:18;;;;;;;8.00;2.80;;;;;;;;;;5421164;26;20000;-54
2024/04/25 11:50:44;;;;;;;9.70;2.45;;;;;;;;;;5421803;26;20293;-54
2024/04/25 11:53:09;;;;;;;7.88;3.10;;;;;;;;;;5420895;26;20014;-54
2024/04/25 11:55:38;;;;;;;14.05;5.57;;;;;;;;;;5421049;26;19999;-53
2024/04/25 11:58:03;;;;;;;12.63;3.50;;;;;;;;;;5420966;26;20424;-54
2024/04/25 12:00:29;;;;;;;10.50;4.30;;;;;;;;;;5420143;26;20081;-55
2024/04/25 12:02:54;;;;;;;10.27;3.30;;;;;;;;;;5421119;26;19991;-55
2024/04/25 12:05:21;;;;;;;11.23;3.75;;;;;;;;;;5421736;26;20006;-53
2024/04/25 12:07:49;;;;;;;9.13;3.25;;;;;;;;;;5421305;26;19996;-54
2024/04/25 12:10:15;;;;;;;12.75;4.50;;;;;;;;;;5421171;26;20010;-52
2024/04/25 12:12:40;;;;;;;11.63;4.30;;;;;;;;;;5420945;26;19992;-52
2024/04/25 12:15:07;;;;;;;13.73;5.20;;;;;;;;;;5422861;26;20038;-53
2024/04/25 12:17:32;;;;;;;9.65;2.20;;;;;;;;;;5421074;26;19999;-53
2024/04/25 12:19:58;;;;;;;12.15;2.90;;;;;;;;;;5421640;26;20089;-56
2024/04/25 12:22:23;;;;;;;7.03;2.58;;;;;;;;;;5421143;26;20400;-53
2024/04/25 12:24:48;;;;;;;10.52;2.75;;;;;;;;;;5421434;26;20064;-55
2024/04/25 12:27:13;;;;;;;7.82;2.33;;;;;;;;;;5418902;26;20416;-55
2024/04/25 12:29:41;;;;;;;13.27;2.60;;;;;;;;;;5420251;26;19999;-57
2024/04/25 12:32:08;;;;;;;10.63;3.90;;;;;;;;;;5421338;26;20004;-55
2024/04/25 12:34:33;;;;;;;7.00;2.50;;;;;;;;;;5420727;26;20013;-56
2024/04/25 12:36:58;;;;;;;9.10;2.67;;;;;;;;;;5420248;26;20427;-56
2024/04/25 12:39:24;;;;;;;8.98;2.53;;;;;;;;;;5421319;26;20313;-52
2024/04/25 12:41:53;;;;;;;13.80;4.30;;;;;;;;;;5430996;26;20392;-55
2024/04/25 12:44:19;;;;;;;8.82;2.90;;;;;;;;;;5434349;26;20287;-56
2024/04/25 12:46:44;;;;;;;9.85;2.67;;;;;;;;;;5432924;26;20017;-56
2024/04/25 12:49:10;;;;;;;10.10;2.38;;;;;;;;;;5418760;26;20021;-55
2024/04/25 12:51:35;;;;;;;8.07;2.53;;;;;;;;;;5421233;26;20014;-56
2024/04/25 12:54:01;;;;;;;8.55;3.15;;;;;;;;;;5416309;26;20004;-57
2024/04/25 12:56:26;;;;;;;12.27;3.38;;;;;;;;;;5435328;26;20350;-53
2024/04/25 12:58:51;;;;;;;11.15;2.65;;;;;;;;;;5428245;26;20018;-54
2024/04/25 13:01:17;;;;;;;9.38;2.60;;;;;;;;;;5418447;26;20065;-52
2024/04/25 13:03:42;;;;;;;8.52;2.70;;;;;;;;;;5420431;26;20010;-54
2024/04/25 13:06:07;;;;;;;9.20;2.70;;;;;;;;;;5418130;26;20301;-58
2024/04/25 13:08:33;;;;;;;8.93;2.78;;;;;;;;;;5420316;26;20074;-54
2024/04/25 13:10:58;;;;;;;7.63;2.88;;;;;;;;;;5427694;26;20002;-57
2024/04/25 13:13:26;;;;;;;6.93;2.30;;;;;;;;;;5421244;26;20000;-57
2024/04/25 13:15:51;;;;;;;6.20;1.98;;;;;;;;;;5419340;26;20004;-55
2024/04/25 13:18:17;;;;;;;8.23;2.90;;;;;;;;;;5420242;26;20414;-54
2024/04/25 13:20:44;;;;;;;8.85;2.72;;;;;;;;;;5438119;26;19998;-55
2024/04/25 13:23:09;;;;;;;7.32;2.10;;;;;;;;;;5447078;26;19992;-56
2024/04/25 13:25:36;;;;;;;6.05;2.38;;;;;;;;;;5420201;26;19988;-57
2024/04/25 13:28:02;;;;;;;6.45;2.13;;;;;;;;;;5404513;26;20015;-56
2024/04/25 13:30:28;;;;;;;6.82;2.35;;;;;;;;;;5421007;26;20043;-57
2024/04/25 13:32:53;;;;;;;6.07;2.22;;;;;;;;;;5418240;26;20074;-57
2024/04/25 13:35:19;;;;;;;10.25;2.55;;;;;;;;;;5419933;26;20007;-56
2024/04/25 13:37:44;;;;;;;7.05;2.50;;;;;;;;;;5419846;26;20010;-55
2024/04/25 13:40:09;;;;;;;7.18;2.60;;;;;;;;;;5419935;26;19991;-56
2024/04/25 13:42:35;;;;;;;8.05;2.60;;;;;;;;;;5441198;26;20003;-53
2024/04/25 13:45:02;;;;;;;8.70;3.22;;;;;;;;;;5435120;26;20424;-55
2024/04/25 13:47:28;;;;;;;8.60;2.40;;;;;;;;;;5420084;26;20004;-54
2024/04/25 13:49:54;;;;;;;8.75;2.80;;;;;;;;;;5419727;26;20077;-55
2024/04/25 13:52:19;;;;;;;7.65;2.85;;;;;;;;;;5420346;26;19996;-54
2024/04/25 13:54:44;;;;;;;7.22;2.38;;;;;;;;;;5408419;26;19997;-57
2024/04/25 13:57:10;;;;;;;7.97;2.63;;;;;;;;;;5419890;26;19991;-55
2024/04/25 13:59:35;;;;;;;8.45;2.97;;;;;;;;;;5390463;26;19992;-57
2024/04/25 14:02:00;;;;;;;11.43;3.50;;;;;;;;;;5414754;26;20065;-56
2024/04/25 14:04:26;;;;;;;7.55;2.80;;;;;;;;;;5419152;26;20046;-53
2024/04/25 14:06:51;;;;;;;10.35;2.92;;;;;;;;;;5441405;26;19991;-53
2024/04/25 14:09:16;;;;;;;10.07;2.92;;;;;;;;;;5423286;26;20292;-56
2024/04/25 14:11:41;;;;;;;10.63;2.67;;;;;;;;;;5423075;26;20277;-56
2024/04/25 14:14:08;;;;;;;8.10;2.80;;;;;;;;;;5423156;26;19987;-57
2024/04/25 14:16:34;;;;;;;10.20;2.70;;;;;;;;;;5423108;26;19992;-54
2024/04/25 14:18:59;;;;;;;9.13;2.75;;;;;;;;;;5422330;26;20295;-57
2024/04/25 14:21:24;;;;;;;7.32;2.83;;;;;;;;;;5422772;26;20042;-53
2024/04/25 14:23:50;;;;;;;9.95;2.60;;;;;;;;;;5423157;26;19987;-55
2024/04/25 14:29:00;;;;;;;10.15;2.80;;;;;;;;;;5421812;26;20419;-55
2024/04/25 14:31:25;;;;;;;8.90;2.67;;;;;;;;;;5422430;26;19992;-57
2024/04/25 14:33:50;;;;;;;9.02;3.50;;;;;;;;;;5423069;26;19991;-54